sensor_id;sensor_type;location;lat;lon;timestamp;pressure;altitude;pressure_sealevel;temperature;humidity
13407;BME280;6774;48.208;10.766;2023-05-24T00:00:29;95701.75;;;15.41;80.53
13407;BME280;6774;48.208;10.766;2023-05-24T00:02:57;95696.22;;;15.42;80.62
13407;BME280;6774;48.208;10.766;2023-05-24T00:05:25;95699.69;;;15.43;80.83
13407;BME280;6774;48.208;10.766;2023-05-24T00:07:56;95698.06;;;15.42;81.09
13407;BME280;6774;48.208;10.766;2023-05-24T00:10:24;95693.34;;;15.44;81.35
13407;BME280;6774;48.208;10.766;2023-05-24T00:12:52;95691.50;;;15.44;81.01
13407;BME280;6774;48.208;10.766;2023-05-24T00:15:20;95693.13;;;15.45;81.22
13407;BME280;6774;48.208;10.766;2023-05-24T00:17:49;95693.53;;;15.49;80.90
13407;BME280;6774;48.208;10.766;2023-05-24T00:20:17;95682.09;;;15.48;81.11
13407;BME280;6774;48.208;10.766;2023-05-24T00:22:47;95686.59;;;15.48;81.17
13407;BME280;6774;48.208;10.766;2023-05-24T00:25:14;95682.09;;;15.48;81.09
13407;BME280;6774;48.208;10.766;2023-05-24T00:27:43;95681.06;;;15.49;80.96
13407;BME280;6774;48.208;10.766;2023-05-24T00:30:11;95680.03;;;15.50;80.96
13407;BME280;6774;48.208;10.766;2023-05-24T00:32:39;95677.34;;;15.50;81.03
13407;BME280;6774;48.208;10.766;2023-05-24T00:35:09;95675.28;;;15.52;80.99
13407;BME280;6774;48.208;10.766;2023-05-24T00:37:36;95679.59;;;15.53;81.04
13407;BME280;6774;48.208;10.766;2023-05-24T00:40:07;95676.91;;;15.53;80.86
13407;BME280;6774;48.208;10.766;2023-05-24T00:42:35;95674.25;;;15.53;80.82
13407;BME280;6774;48.208;10.766;2023-05-24T00:45:04;95670.56;;;15.54;80.62
13407;BME280;6774;48.208;10.766;2023-05-24T00:47:34;95669.16;;;15.52;80.44
13407;BME280;6774;48.208;10.766;2023-05-24T00:50:03;95677.97;;;15.52;80.44
13407;BME280;6774;48.208;10.766;2023-05-24T00:52:33;95681.66;;;15.51;80.56
13407;BME280;6774;48.208;10.766;2023-05-24T00:55:02;95681.06;;;15.49;80.40
13407;BME280;6774;48.208;10.766;2023-05-24T00:57:30;95684.34;;;15.45;80.59
13407;BME280;6774;48.208;10.766;2023-05-24T00:59:58;95686.63;;;15.41;80.71
13407;BME280;6774;48.208;10.766;2023-05-24T01:02:27;95680.88;;;15.44;80.14
13407;BME280;6774;48.208;10.766;2023-05-24T01:04:55;95672.69;;;15.46;80.57
13407;BME280;6774;48.208;10.766;2023-05-24T01:07:27;95678.84;;;15.46;80.67
13407;BME280;6774;48.208;10.766;2023-05-24T01:10:08;95681.28;;;15.48;80.65
13407;BME280;6774;48.208;10.766;2023-05-24T01:12:49;95666.72;;;15.50;80.45
13407;BME280;6774;48.208;10.766;2023-05-24T01:15:23;95681.28;;;15.48;80.49
13407;BME280;6774;48.208;10.766;2023-05-24T01:17:57;95676.75;;;15.48;80.41
13407;BME280;6774;48.208;10.766;2023-05-24T01:20:29;95675.13;;;15.47;80.32
13407;BME280;6774;48.208;10.766;2023-05-24T01:23:14;95668.19;;;15.46;80.48
13407;BME280;6774;48.208;10.766;2023-05-24T01:26:01;95670.22;;;15.44;80.38
13407;BME280;6774;48.208;10.766;2023-05-24T01:28:32;95677.16;;;15.45;80.61
13407;BME280;6774;48.208;10.766;2023-05-24T01:31:01;95682.50;;;15.45;80.61
13407;BME280;6774;48.208;10.766;2023-05-24T01:33:29;95678.84;;;15.46;80.74
13407;BME280;6774;48.208;10.766;2023-05-24T01:35:57;95676.75;;;15.48;80.32
13407;BME280;6774;48.208;10.766;2023-05-24T01:38:25;95678.84;;;15.46;80.50
13407;BME280;6774;48.208;10.766;2023-05-24T01:40:58;95681.69;;;15.45;80.50
13407;BME280;6774;48.208;10.766;2023-05-24T01:43:35;95681.31;;;15.41;80.58
13407;BME280;6774;48.208;10.766;2023-05-24T01:46:10;95680.50;;;15.41;80.66
13407;BME280;6774;48.208;10.766;2023-05-24T01:48:47;95679.47;;;15.42;80.57
13407;BME280;6774;48.208;10.766;2023-05-24T01:51:22;95685.22;;;15.39;80.61
13407;BME280;6774;48.208;10.766;2023-05-24T01:53:53;95679.88;;;15.39;80.59
13407;BME280;6774;48.208;10.766;2023-05-24T01:56:21;95680.09;;;15.37;80.71
13407;BME280;6774;48.208;10.766;2023-05-24T01:58:55;95676.63;;;15.36;80.70
13407;BME280;6774;48.208;10.766;2023-05-24T02:01:25;95684.81;;;15.35;80.63
13407;BME280;6774;48.208;10.766;2023-05-24T02:03:54;95675.19;;;15.34;80.45
13407;BME280;6774;48.208;10.766;2023-05-24T02:06:22;95679.31;;;15.30;80.43
13407;BME280;6774;48.208;10.766;2023-05-24T02:08:49;95684.03;;;15.28;80.26
13407;BME280;6774;48.208;10.766;2023-05-24T02:11:18;95684.63;;;15.30;80.33
13407;BME280;6774;48.208;10.766;2023-05-24T02:13:46;95682.38;;;15.27;80.08
13407;BME280;6774;48.208;10.766;2023-05-24T02:16:15;95681.38;;;15.28;80.37
13407;BME280;6774;48.208;10.766;2023-05-24T02:18:43;95683.84;;;15.23;80.48
13407;BME280;6774;48.208;10.766;2023-05-24T02:21:12;95684.47;;;14.67;81.80
13407;BME280;6774;48.208;10.766;2023-05-24T02:23:40;95690.44;;;14.56;82.26
13407;BME280;6774;48.208;10.766;2023-05-24T02:26:09;95687.34;;;14.52;82.30
13407;BME280;6774;48.208;10.766;2023-05-24T02:28:39;95678.41;;;14.46;82.55
13407;BME280;6774;48.208;10.766;2023-05-24T02:31:07;95680.38;;;14.44;82.54
13407;BME280;6774;48.208;10.766;2023-05-24T02:33:36;95678.75;;;14.43;82.69
13407;BME280;6774;48.208;10.766;2023-05-24T02:36:04;95682.88;;;14.39;82.41
13407;BME280;6774;48.208;10.766;2023-05-24T02:38:32;95676.75;;;14.32;82.86
13407;BME280;6774;48.208;10.766;2023-05-24T02:40:59;95679.81;;;14.36;82.93
13407;BME280;6774;48.208;10.766;2023-05-24T02:43:27;95678.78;;;14.37;82.70
13407;BME280;6774;48.208;10.766;2023-05-24T02:45:55;95676.31;;;14.35;82.54
13407;BME280;6774;48.208;10.766;2023-05-24T02:48:23;95678.16;;;14.35;82.48
13407;BME280;6774;48.208;10.766;2023-05-24T02:50:52;95680.81;;;14.41;81.93
13407;BME280;6774;48.208;10.766;2023-05-24T02:53:20;95667.34;;;14.36;81.95
13407;BME280;6774;48.208;10.766;2023-05-24T02:55:48;95661.25;;;14.29;82.32
13407;BME280;6774;48.208;10.766;2023-05-24T02:58:16;95663.06;;;14.29;82.15
13407;BME280;6774;48.208;10.766;2023-05-24T03:00:47;95659.19;;;14.24;82.24
13407;BME280;6774;48.208;10.766;2023-05-24T03:03:17;95662.06;;;14.23;81.99
13407;BME280;6774;48.208;10.766;2023-05-24T03:05:45;95660.84;;;14.19;81.93
13407;BME280;6774;48.208;10.766;2023-05-24T03:08:14;95656.97;;;14.15;82.03
13407;BME280;6774;48.208;10.766;2023-05-24T03:10:42;95657.38;;;14.12;82.34
13407;BME280;6774;48.208;10.766;2023-05-24T03:13:11;95653.09;;;14.11;81.99
13407;BME280;6774;48.208;10.766;2023-05-24T03:15:39;95654.31;;;14.08;81.74
13407;BME280;6774;48.208;10.766;2023-05-24T03:18:08;95654.94;;;14.04;81.71
13407;BME280;6774;48.208;10.766;2023-05-24T03:20:40;95662.50;;;13.93;81.67
13407;BME280;6774;48.208;10.766;2023-05-24T03:23:08;95664.53;;;13.91;81.98
13407;BME280;6774;48.208;10.766;2023-05-24T03:25:38;95660.03;;;13.92;81.98
13407;BME280;6774;48.208;10.766;2023-05-24T03:28:06;95665.34;;;13.85;82.15
13407;BME280;6774;48.208;10.766;2023-05-24T03:30:34;95668.59;;;13.87;82.28
13407;BME280;6774;48.208;10.766;2023-05-24T03:33:02;95661.66;;;13.86;82.12
13407;BME280;6774;48.208;10.766;2023-05-24T03:35:31;95661.66;;;13.86;82.06
13407;BME280;6774;48.208;10.766;2023-05-24T03:37:58;95665.94;;;13.87;81.97
13407;BME280;6774;48.208;10.766;2023-05-24T03:40:28;95666.97;;;13.86;82.04
13407;BME280;6774;48.208;10.766;2023-05-24T03:43:15;95671.47;;;13.86;81.97
13407;BME280;6774;48.208;10.766;2023-05-24T03:45:48;95674.31;;;13.84;81.81
13407;BME280;6774;48.208;10.766;2023-05-24T03:48:17;95675.72;;;13.80;81.64
13407;BME280;6774;48.208;10.766;2023-05-24T03:50:46;95682.47;;;13.76;81.60
13407;BME280;6774;48.208;10.766;2023-05-24T03:53:14;95684.53;;;14.14;80.15
13407;BME280;6774;48.208;10.766;2023-05-24T03:55:42;95683.72;;;14.20;79.50
13407;BME280;6774;48.208;10.766;2023-05-24T03:58:11;95692.88;;;14.24;79.36
13407;BME280;6774;48.208;10.766;2023-05-24T04:00:40;95692.28;;;14.22;78.89
13407;BME280;6774;48.208;10.766;2023-05-24T04:03:09;95693.50;;;14.19;78.83
13407;BME280;6774;48.208;10.766;2023-05-24T04:05:38;95692.28;;;14.02;78.16
13407;BME280;6774;48.208;10.766;2023-05-24T04:08:06;95696.94;;;13.67;79.58
13407;BME280;6774;48.208;10.766;2023-05-24T04:10:36;95703.69;;;13.63;79.72
13407;BME280;6774;48.208;10.766;2023-05-24T04:13:04;95709.38;;;13.60;79.49
13407;BME280;6774;48.208;10.766;2023-05-24T04:15:35;95702.44;;;13.59;79.23
13407;BME280;6774;48.208;10.766;2023-05-24T04:18:05;95709.97;;;13.62;79.07
13407;BME280;6774;48.208;10.766;2023-05-24T04:20:33;95705.31;;;13.64;78.74
13407;BME280;6774;48.208;10.766;2023-05-24T04:23:01;95705.31;;;13.64;78.66
13407;BME280;6774;48.208;10.766;2023-05-24T04:25:29;95704.50;;;13.63;78.39
13407;BME280;6774;48.208;10.766;2023-05-24T04:27:59;95702.44;;;13.59;78.06
13407;BME280;6774;48.208;10.766;2023-05-24T04:30:29;95704.06;;;13.60;78.06
13407;BME280;6774;48.208;10.766;2023-05-24T04:32:57;95703.69;;;13.63;77.53
13407;BME280;6774;48.208;10.766;2023-05-24T04:35:28;95708.59;;;13.66;77.44
13407;BME280;6774;48.208;10.766;2023-05-24T04:37:56;95697.97;;;13.66;77.04
13407;BME280;6774;48.208;10.766;2023-05-24T04:40:25;95712.22;;;13.58;76.90
13407;BME280;6774;48.208;10.766;2023-05-24T04:42:52;95714.09;;;13.64;76.93
13407;BME280;6774;48.208;10.766;2023-05-24T04:45:20;95717.97;;;13.69;77.07
13407;BME280;6774;48.208;10.766;2023-05-24T04:47:48;95721.69;;;14.14;75.60
13407;BME280;6774;48.208;10.766;2023-05-24T04:50:16;95713.91;;;14.32;74.68
13407;BME280;6774;48.208;10.766;2023-05-24T04:52:46;95714.72;;;14.39;73.93
13407;BME280;6774;48.208;10.766;2023-05-24T04:55:14;95706.97;;;14.38;73.37
13407;BME280;6774;48.208;10.766;2023-05-24T04:57:41;95709.19;;;14.34;72.67
13407;BME280;6774;48.208;10.766;2023-05-24T05:00:10;95703.88;;;14.34;72.70
13407;BME280;6774;48.208;10.766;2023-05-24T05:02:38;95710.66;;;14.30;73.00
13407;BME280;6774;48.208;10.766;2023-05-24T05:05:06;95709.41;;;14.26;73.07
13407;BME280;6774;48.208;10.766;2023-05-24T05:07:35;95711.06;;;14.27;72.97
13407;BME280;6774;48.208;10.766;2023-05-24T05:10:07;95706.75;;;14.33;72.90
13407;BME280;6774;48.208;10.766;2023-05-24T05:12:34;95703.72;;;14.29;72.23
13407;BME280;6774;48.208;10.766;2023-05-24T05:15:03;95702.09;;;14.28;71.59
13407;BME280;6774;48.208;10.766;2023-05-24T05:17:30;95701.06;;;14.29;71.53
13407;BME280;6774;48.208;10.766;2023-05-24T05:19:58;95703.88;;;14.34;71.63
13407;BME280;6774;48.208;10.766;2023-05-24T05:22:26;95710.66;;;14.37;71.79
13407;BME280;6774;48.208;10.766;2023-05-24T05:24:56;95704.28;;;14.44;71.83
13407;BME280;6774;48.208;10.766;2023-05-24T05:27:25;95703.31;;;14.45;71.26
13407;BME280;6774;48.208;10.766;2023-05-24T05:29:53;95702.09;;;14.55;71.40
13407;BME280;6774;48.208;10.766;2023-05-24T05:32:21;95706.53;;;14.61;71.30
13407;BME280;6774;48.208;10.766;2023-05-24T05:34:49;95713.09;;;14.65;70.63
13407;BME280;6774;48.208;10.766;2023-05-24T05:37:16;95705.72;;;14.67;70.29
13407;BME280;6774;48.208;10.766;2023-05-24T05:39:44;95708.38;;;14.54;69.52
13407;BME280;6774;48.208;10.766;2023-05-24T05:42:12;95698.38;;;14.42;69.65
13407;BME280;6774;48.208;10.766;2023-05-24T05:44:41;95707.78;;;14.51;70.41
13407;BME280;6774;48.208;10.766;2023-05-24T05:47:09;95700.84;;;14.64;70.90
13407;BME280;6774;48.208;10.766;2023-05-24T05:49:36;95691.34;;;14.81;70.15
13407;BME280;6774;48.208;10.766;2023-05-24T05:52:04;95700.56;;;14.92;69.98
13407;BME280;6774;48.208;10.766;2023-05-24T05:54:32;95684.75;;;15.03;69.89
13407;BME280;6774;48.208;10.766;2023-05-24T05:57:00;95679.38;;;15.17;70.51
13407;BME280;6774;48.208;10.766;2023-05-24T05:59:28;95687.69;;;15.27;69.87
13407;BME280;6774;48.208;10.766;2023-05-24T06:01:57;95685.44;;;15.37;68.89
13407;BME280;6774;48.208;10.766;2023-05-24T06:04:25;95691.16;;;15.34;68.88
13407;BME280;6774;48.208;10.766;2023-05-24T06:06:52;95685.63;;;15.35;68.02
13407;BME280;6774;48.208;10.766;2023-05-24T06:09:20;95696.09;;;15.30;67.78
13407;BME280;6774;48.208;10.766;2023-05-24T06:11:48;95681.75;;;15.38;68.43
13407;BME280;6774;48.208;10.766;2023-05-24T06:14:16;95691.69;;;15.49;68.11
13407;BME280;6774;48.208;10.766;2023-05-24T06:16:45;95687.97;;;15.57;67.78
13407;BME280;6774;48.208;10.766;2023-05-24T06:19:15;95690.63;;;15.63;67.29
13407;BME280;6774;48.208;10.766;2023-05-24T06:21:43;95694.06;;;15.26;68.05
13407;BME280;6774;48.208;10.766;2023-05-24T06:24:14;95694.06;;;15.26;68.65
13407;BME280;6774;48.208;10.766;2023-05-24T06:26:46;95692.84;;;15.22;68.26
13407;BME280;6774;48.208;10.766;2023-05-24T06:29:13;95691.03;;;15.16;68.31
13407;BME280;6774;48.208;10.766;2023-05-24T06:31:41;95712.28;;;15.16;68.78
13407;BME280;6774;48.208;10.766;2023-05-24T06:34:09;95700.22;;;15.20;69.06
13407;BME280;6774;48.208;10.766;2023-05-24T06:36:38;95705.72;;;15.25;68.80
13407;BME280;6774;48.208;10.766;2023-05-24T06:39:08;95708.28;;;15.45;69.06
13407;BME280;6774;48.208;10.766;2023-05-24T06:41:36;95700.41;;;15.63;68.36
13407;BME280;6774;48.208;10.766;2023-05-24T06:44:05;95712.06;;;15.69;68.48
13407;BME280;6774;48.208;10.766;2023-05-24T06:46:33;95718.50;;;15.86;67.74
13407;BME280;6774;48.208;10.766;2023-05-24T06:49:01;95715.03;;;15.85;66.85
13407;BME280;6774;48.208;10.766;2023-05-24T06:51:29;95718.78;;;15.71;67.14
13407;BME280;6774;48.208;10.766;2023-05-24T06:54:00;95719.13;;;15.81;67.74
13407;BME280;6774;48.208;10.766;2023-05-24T06:56:28;95728.50;;;15.90;67.23
13407;BME280;6774;48.208;10.766;2023-05-24T06:58:56;95720.56;;;16.09;68.23
13407;BME280;6774;48.208;10.766;2023-05-24T07:01:23;95728.25;;;16.24;67.07
13407;BME280;6774;48.208;10.766;2023-05-24T07:03:51;95724.88;;;16.35;66.04
13407;BME280;6774;48.208;10.766;2023-05-24T07:06:19;95732.19;;;16.46;66.65
13407;BME280;6774;48.208;10.766;2023-05-24T07:08:48;95731.47;;;16.57;66.61
13407;BME280;6774;48.208;10.766;2023-05-24T07:11:17;95731.75;;;16.67;66.41
13407;BME280;6774;48.208;10.766;2023-05-24T07:13:46;95736.69;;;16.64;64.86
13407;BME280;6774;48.208;10.766;2023-05-24T07:16:13;95743.06;;;16.63;64.80
13407;BME280;6774;48.208;10.766;2023-05-24T07:18:41;95734.44;;;16.67;65.75
13407;BME280;6774;48.208;10.766;2023-05-24T07:21:09;95744.25;;;16.73;65.94
13407;BME280;6774;48.208;10.766;2023-05-24T07:23:37;95749.03;;;16.65;65.26
13407;BME280;6774;48.208;10.766;2023-05-24T07:26:05;95744.97;;;16.81;65.15
13407;BME280;6774;48.208;10.766;2023-05-24T07:28:34;95746.94;;;16.92;64.11
13407;BME280;6774;48.208;10.766;2023-05-24T07:31:03;95746.03;;;17.34;62.22
13407;BME280;6774;48.208;10.766;2023-05-24T07:33:35;95741.72;;;17.52;61.60
13407;BME280;6774;48.208;10.766;2023-05-24T07:36:03;95735.84;;;17.61;62.68
13407;BME280;6774;48.208;10.766;2023-05-24T07:38:32;95736.88;;;17.79;62.08
13407;BME280;6774;48.208;10.766;2023-05-24T07:41:01;95736.66;;;17.92;62.06
13407;BME280;6774;48.208;10.766;2023-05-24T07:43:30;95736.63;;;17.80;61.06
13407;BME280;6774;48.208;10.766;2023-05-24T07:45:59;95739.47;;;17.67;60.98
13407;BME280;6774;48.208;10.766;2023-05-24T07:48:27;95743.72;;;17.56;60.44
13407;BME280;6774;48.208;10.766;2023-05-24T07:50:54;95743.06;;;17.43;60.32
13407;BME280;6774;48.208;10.766;2023-05-24T07:53:22;95744.56;;;17.39;60.72
13407;BME280;6774;48.208;10.766;2023-05-24T07:55:50;95739.56;;;17.42;61.80
13407;BME280;6774;48.208;10.766;2023-05-24T07:58:17;95741.59;;;17.28;61.65
13407;BME280;6774;48.208;10.766;2023-05-24T08:00:45;95743.53;;;17.21;62.08
13407;BME280;6774;48.208;10.766;2023-05-24T08:03:14;95743.88;;;17.43;62.08
13407;BME280;6774;48.208;10.766;2023-05-24T08:05:43;95733.25;;;17.55;61.48
13407;BME280;6774;48.208;10.766;2023-05-24T08:08:11;95735.75;;;17.68;61.37
13407;BME280;6774;48.208;10.766;2023-05-24T08:10:39;95736.50;;;17.75;60.25
13407;BME280;6774;48.208;10.766;2023-05-24T08:13:07;95735.09;;;18.03;60.88
13407;BME280;6774;48.208;10.766;2023-05-24T08:15:35;95732.22;;;18.28;59.65
13407;BME280;6774;48.208;10.766;2023-05-24T08:18:03;95738.19;;;18.53;58.92
13407;BME280;6774;48.208;10.766;2023-05-24T08:20:32;95738.66;;;18.73;59.18
13407;BME280;6774;48.208;10.766;2023-05-24T08:23:02;95735.53;;;18.65;58.15
13407;BME280;6774;48.208;10.766;2023-05-24T08:25:29;95733.78;;;18.47;57.82
13407;BME280;6774;48.208;10.766;2023-05-24T08:27:58;95739.47;;;18.51;59.22
13407;BME280;6774;48.208;10.766;2023-05-24T08:30:26;95739.22;;;18.64;60.52
13407;BME280;6774;48.208;10.766;2023-05-24T08:32:54;95742.75;;;18.76;59.65
13407;BME280;6774;48.208;10.766;2023-05-24T08:35:23;95743.00;;;18.86;59.10
13407;BME280;6774;48.208;10.766;2023-05-24T08:37:52;95738.31;;;18.82;58.93
13407;BME280;6774;48.208;10.766;2023-05-24T08:40:20;95733.91;;;18.87;59.93
13407;BME280;6774;48.208;10.766;2023-05-24T08:42:50;95743.78;;;18.87;59.36
13407;BME280;6774;48.208;10.766;2023-05-24T08:45:20;95744.47;;;18.82;59.80
13407;BME280;6774;48.208;10.766;2023-05-24T08:47:49;95744.38;;;18.77;60.34
13407;BME280;6774;48.208;10.766;2023-05-24T08:50:17;95753.53;;;18.58;60.65
13407;BME280;6774;48.208;10.766;2023-05-24T08:52:46;95754.44;;;18.52;60.96
13407;BME280;6774;48.208;10.766;2023-05-24T08:55:15;95760.94;;;18.44;60.81
13407;BME280;6774;48.208;10.766;2023-05-24T08:57:44;95763.22;;;18.17;62.12
13407;BME280;6774;48.208;10.766;2023-05-24T09:00:13;95764.97;;;18.23;61.44
13407;BME280;6774;48.208;10.766;2023-05-24T09:02:44;95752.03;;;18.08;61.36
13407;BME280;6774;48.208;10.766;2023-05-24T09:05:13;95759.81;;;18.10;61.85
13407;BME280;6774;48.208;10.766;2023-05-24T09:07:44;95755.81;;;18.31;61.59
13407;BME280;6774;48.208;10.766;2023-05-24T09:10:11;95767.66;;;18.46;60.81
13407;BME280;6774;48.208;10.766;2023-05-24T09:12:44;95767.00;;;18.51;59.04
13407;BME280;6774;48.208;10.766;2023-05-24T09:15:14;95776.53;;;18.59;59.39
13407;BME280;6774;48.208;10.766;2023-05-24T09:17:42;95781.41;;;18.62;59.80
13407;BME280;6774;48.208;10.766;2023-05-24T09:20:11;95789.84;;;18.77;59.64
13407;BME280;6774;48.208;10.766;2023-05-24T09:22:40;95781.34;;;18.80;59.77
13407;BME280;6774;48.208;10.766;2023-05-24T09:25:12;95776.56;;;18.70;58.86
13407;BME280;6774;48.208;10.766;2023-05-24T09:27:49;95779.72;;;18.79;59.17
13407;BME280;6774;48.208;10.766;2023-05-24T09:30:18;95785.88;;;18.80;58.17
13407;BME280;6774;48.208;10.766;2023-05-24T09:32:56;95785.06;;;18.79;58.99
13407;BME280;6774;48.208;10.766;2023-05-24T09:35:24;95792.50;;;18.77;58.47
13407;BME280;6774;48.208;10.766;2023-05-24T09:37:54;95791.34;;;18.85;58.41
13407;BME280;6774;48.208;10.766;2023-05-24T09:40:23;95786.81;;;18.85;57.50
13407;BME280;6774;48.208;10.766;2023-05-24T09:43:03;95789.59;;;18.90;57.04
13407;BME280;6774;48.208;10.766;2023-05-24T09:45:31;95774.59;;;18.89;57.35
13407;BME280;6774;48.208;10.766;2023-05-24T09:47:59;95782.28;;;18.97;57.49
13407;BME280;6774;48.208;10.766;2023-05-24T09:50:30;95774.22;;;19.09;56.94
13407;BME280;6774;48.208;10.766;2023-05-24T09:52:58;95782.59;;;19.24;56.85
13407;BME280;6774;48.208;10.766;2023-05-24T09:55:26;95774.78;;;19.35;56.70
13407;BME280;6774;48.208;10.766;2023-05-24T09:58:01;95780.09;;;19.46;56.18
13407;BME280;6774;48.208;10.766;2023-05-24T10:00:32;95782.41;;;19.54;56.35
13407;BME280;6774;48.208;10.766;2023-05-24T10:03:03;95782.00;;;19.57;56.28
13407;BME280;6774;48.208;10.766;2023-05-24T10:05:33;95784.81;;;19.39;55.29
13407;BME280;6774;48.208;10.766;2023-05-24T10:08:02;95780.25;;;19.40;56.93
13407;BME280;6774;48.208;10.766;2023-05-24T10:10:32;95786.25;;;19.47;55.40
13407;BME280;6774;48.208;10.766;2023-05-24T10:13:01;95786.75;;;19.44;55.43
13407;BME280;6774;48.208;10.766;2023-05-24T10:15:30;95791.97;;;19.50;55.65
13407;BME280;6774;48.208;10.766;2023-05-24T10:17:58;95793.59;;;19.51;54.95
13407;BME280;6774;48.208;10.766;2023-05-24T10:20:27;95797.91;;;19.52;55.42
13407;BME280;6774;48.208;10.766;2023-05-24T10:22:58;95795.59;;;19.56;55.19
13407;BME280;6774;48.208;10.766;2023-05-24T10:25:28;95789.53;;;19.60;54.84
13407;BME280;6774;48.208;10.766;2023-05-24T10:27:57;95786.94;;;19.66;54.54
13407;BME280;6774;48.208;10.766;2023-05-24T10:30:35;95784.47;;;18.89;54.17
13407;BME280;6774;48.208;10.766;2023-05-24T10:33:05;95794.81;;;19.09;54.70
13407;BME280;6774;48.208;10.766;2023-05-24T10:35:34;95787.50;;;19.16;55.92
13407;BME280;6774;48.208;10.766;2023-05-24T10:38:05;95791.78;;;19.17;54.84
13407;BME280;6774;48.208;10.766;2023-05-24T10:40:33;95801.00;;;19.21;55.86
13407;BME280;6774;48.208;10.766;2023-05-24T10:43:03;95800.06;;;19.15;55.62
13407;BME280;6774;48.208;10.766;2023-05-24T10:45:35;95800.66;;;19.06;55.06
13407;BME280;6774;48.208;10.766;2023-05-24T10:48:30;95799.03;;;19.04;55.79
13407;BME280;6774;48.208;10.766;2023-05-24T10:50:59;95800.53;;;19.12;56.80
13407;BME280;6774;48.208;10.766;2023-05-24T10:53:27;95787.16;;;19.00;56.27
13407;BME280;6774;48.208;10.766;2023-05-24T10:55:57;95797.41;;;19.03;55.53
13407;BME280;6774;48.208;10.766;2023-05-24T10:58:43;95792.41;;;18.95;55.48
13407;BME280;6774;48.208;10.766;2023-05-24T11:01:23;95793.91;;;19.15;56.20
13407;BME280;6774;48.208;10.766;2023-05-24T11:03:52;95790.06;;;19.22;55.14
13407;BME280;6774;48.208;10.766;2023-05-24T11:06:44;95790.59;;;19.36;53.62
13407;BME280;6774;48.208;10.766;2023-05-24T11:09:13;95787.59;;;19.32;53.79
13407;BME280;6774;48.208;10.766;2023-05-24T11:11:45;95788.22;;;19.11;53.23
13407;BME280;6774;48.208;10.766;2023-05-24T11:14:17;95782.50;;;19.08;53.68
13407;BME280;6774;48.208;10.766;2023-05-24T11:16:48;95790.97;;;19.16;54.27
13407;BME280;6774;48.208;10.766;2023-05-24T11:19:18;95779.13;;;19.12;53.83
13407;BME280;6774;48.208;10.766;2023-05-24T11:21:47;95776.16;;;19.37;54.71
13407;BME280;6774;48.208;10.766;2023-05-24T11:24:16;95780.34;;;19.56;55.21
13407;BME280;6774;48.208;10.766;2023-05-24T11:26:44;95773.78;;;19.76;53.63
13407;BME280;6774;48.208;10.766;2023-05-24T11:29:13;95776.00;;;19.55;52.27
13407;BME280;6774;48.208;10.766;2023-05-24T11:31:47;95775.59;;;19.35;52.55
13407;BME280;6774;48.208;10.766;2023-05-24T11:34:16;95773.03;;;19.28;51.83
13407;BME280;6774;48.208;10.766;2023-05-24T11:36:44;95777.16;;;19.08;51.09
13407;BME280;6774;48.208;10.766;2023-05-24T11:39:13;95778.56;;;18.98;52.08
13407;BME280;6774;48.208;10.766;2023-05-24T11:41:41;95778.66;;;18.92;52.04
13407;BME280;6774;48.208;10.766;2023-05-24T11:44:10;95771.06;;;18.54;51.68
13407;BME280;6774;48.208;10.766;2023-05-24T11:46:38;95772.00;;;18.47;54.44
13407;BME280;6774;48.208;10.766;2023-05-24T11:49:11;95771.47;;;18.69;55.71
13407;BME280;6774;48.208;10.766;2023-05-24T11:51:40;95767.63;;;19.12;54.06
13407;BME280;6774;48.208;10.766;2023-05-24T11:54:08;95767.94;;;19.27;52.66
13407;BME280;6774;48.208;10.766;2023-05-24T11:56:37;95768.56;;;19.69;52.40
13407;BME280;6774;48.208;10.766;2023-05-24T11:59:08;95759.09;;;19.78;52.67
13407;BME280;6774;48.208;10.766;2023-05-24T12:01:40;95768.94;;;19.89;52.42
13407;BME280;6774;48.208;10.766;2023-05-24T12:04:09;95758.84;;;19.80;50.68
13407;BME280;6774;48.208;10.766;2023-05-24T12:06:39;95758.22;;;19.89;50.45
13407;BME280;6774;48.208;10.766;2023-05-24T12:09:09;95767.25;;;19.72;50.08
13407;BME280;6774;48.208;10.766;2023-05-24T12:11:40;95760.00;;;19.84;51.06
13407;BME280;6774;48.208;10.766;2023-05-24T12:14:12;95751.56;;;19.75;51.14
13407;BME280;6774;48.208;10.766;2023-05-24T12:16:41;95754.81;;;19.66;49.89
13407;BME280;6774;48.208;10.766;2023-05-24T12:19:15;95755.47;;;19.84;50.58
13407;BME280;6774;48.208;10.766;2023-05-24T12:21:59;95752.44;;;20.26;51.70
13407;BME280;6774;48.208;10.766;2023-05-24T12:24:30;95747.94;;;20.60;49.18
13407;BME280;6774;48.208;10.766;2023-05-24T12:26:59;95745.69;;;20.52;48.09
13407;BME280;6774;48.208;10.766;2023-05-24T12:29:31;95740.06;;;20.54;48.48
13407;BME280;6774;48.208;10.766;2023-05-24T12:32:00;95751.50;;;20.66;47.70
13407;BME280;6774;48.208;10.766;2023-05-24T12:34:30;95743.56;;;20.71;47.14
13407;BME280;6774;48.208;10.766;2023-05-24T12:36:58;95743.53;;;20.88;48.53
13407;BME280;6774;48.208;10.766;2023-05-24T12:39:27;95753.16;;;21.22;47.21
13407;BME280;6774;48.208;10.766;2023-05-24T12:41:58;95749.16;;;21.25;47.10
13407;BME280;6774;48.208;10.766;2023-05-24T12:44:28;95751.75;;;21.20;47.38
13407;BME280;6774;48.208;10.766;2023-05-24T12:46:57;95749.03;;;20.98;46.87
13407;BME280;6774;48.208;10.766;2023-05-24T12:49:25;95752.66;;;20.87;47.63
13407;BME280;6774;48.208;10.766;2023-05-24T12:51:55;95753.75;;;21.08;48.35
13407;BME280;6774;48.208;10.766;2023-05-24T12:54:24;95756.28;;;21.36;48.02
13407;BME280;6774;48.208;10.766;2023-05-24T12:56:53;95750.94;;;21.19;47.09
13407;BME280;6774;48.208;10.766;2023-05-24T12:59:24;95746.53;;;21.30;47.51
13407;BME280;6774;48.208;10.766;2023-05-24T13:01:52;95741.81;;;21.20;48.14
13407;BME280;6774;48.208;10.766;2023-05-24T13:04:22;95755.69;;;21.51;47.69
13407;BME280;6774;48.208;10.766;2023-05-24T13:06:51;95747.84;;;21.71;48.82
13407;BME280;6774;48.208;10.766;2023-05-24T13:09:21;95748.53;;;21.83;47.79
13407;BME280;6774;48.208;10.766;2023-05-24T13:11:49;95749.19;;;21.69;45.39